| time (UTC) | temp F | wind direction | speed knots | gust knots | rain 1hr in | rain 24hr in | rain mn in | humidity % | barometer mb |
| 20260504030243 | 41 | 6 | 0.0 | 0.0 | 0.00 | 0.00 | 0.00 | 88 | 1014.2 |
| 20260504025739 | 41 | 51 | 0.0 | 0.0 | 0.00 | 0.00 | 0.00 | 88 | 1014.2 |
| 20260504025236 | 41 | 66 | 0.0 | 0.0 | 0.00 | 0.00 | 0.00 | 88 | 1014.2 |
| 20260504024733 | 41 | 94 | 0.0 | 0.0 | 0.00 | 0.00 | 0.00 | 87 | 1014.2 |
| 20260504024229 | 41 | 94 | 0.0 | 0.0 | 0.00 | 0.00 | 0.00 | 86 | 1014.1 |
| 20260504023726 | 41 | 93 | 0.0 | 0.0 | 0.00 | 0.00 | 0.00 | 85 | 1014.4 |
| 20260504023222 | 42 | 93 | 0.0 | 0.0 | 0.00 | 0.00 | 0.00 | 85 | 1014.5 |
| 20260504022718 | 42 | 96 | 0.0 | 0.0 | 0.00 | 0.00 | 0.00 | 84 | 1014.4 |
| 20260504022215 | 42 | 96 | 0.0 | 0.0 | 0.00 | 0.00 | 0.00 | 82 | 1014.4 |
| 20260504021712 | 43 | 96 | 0.0 | 0.0 | 0.00 | 0.00 | 0.00 | 82 | 1014.1 |
| 20260504021209 | 44 | 96 | 0.0 | 0.0 | 0.00 | 0.00 | 0.00 | 80 | 1014.2 |
| 20260504020706 | 44 | 106 | 0.0 | 0.0 | 0.00 | 0.00 | 0.00 | 79 | 1014.0 |
| 20260504020202 | 44 | 102 | 0.0 | 0.0 | 0.00 | 0.00 | 0.00 | 78 | 1014.1 |
| 20260504015659 | 45 | 102 | 0.0 | 0.0 | 0.00 | 0.00 | 0.00 | 78 | 1014.3 |
| 20260504015155 | 45 | 101 | 0.0 | 0.0 | 0.00 | 0.00 | 0.00 | 76 | 1014.3 |
| 20260504014650 | 46 | 104 | 0.0 | 0.0 | 0.00 | 0.00 | 0.00 | 74 | 1014.1 |
| 20260504014148 | 46 | 113 | 0.0 | 0.0 | 0.00 | 0.00 | 0.00 | 71 | 1014.3 |
| 20260504013646 | 46 | 94 | 0.0 | 0.0 | 0.00 | 0.00 | 0.00 | 71 | 1014.1 |
| 20260504013142 | 47 | 85 | 0.0 | 0.0 | 0.00 | 0.00 | 0.00 | 71 | 1014.1 |
| 20260504012640 | 47 | 100 | 0.0 | 0.0 | 0.00 | 0.00 | 0.00 | 69 | 1014.0 |
| 20260504012138 | 48 | 92 | 0.0 | 0.0 | 0.00 | 0.00 | 0.00 | 67 | 1014.0 |
| 20260504011634 | 48 | 106 | 0.0 | 0.0 | 0.00 | 0.00 | 0.00 | 66 | 1013.9 |
| 20260504011131 | 48 | 85 | 0.0 | 0.0 | 0.00 | 0.00 | 0.00 | 65 | 1014.1 |
| 20260504010626 | 49 | 80 | 0.0 | 0.0 | 0.00 | 0.00 | 0.00 | 65 | 1014.1 |
| 20260504010122 | 49 | 98 | 0.0 | 0.0 | 0.00 | 0.00 | 0.00 | 64 | 1014.0 |
| 20260504005620 | 50 | 98 | 0.0 | 0.0 | 0.00 | 0.00 | 0.00 | 63 | 1014.1 |
| 20260504005116 | 51 | 82 | 0.0 | 0.0 | 0.00 | 0.00 | 0.00 | 60 | 1014.1 |
| 20260504004615 | 51 | 122 | 0.0 | 0.9 | 0.00 | 0.00 | 0.00 | 61 | 1013.9 |
| 20260504004111 | 52 | 69 | 0.0 | 0.0 | 0.00 | 0.00 | 0.00 | 61 | 1013.8 |
| 20260504003608 | 52 | 55 | 0.0 | 0.0 | 0.00 | 0.00 | 0.00 | 59 | 1014.0 |
| 20260504003104 | 53 | 112 | 0.0 | 0.0 | 0.00 | 0.00 | 0.00 | 58 | 1014.0 |
| 20260504002601 | 53 | 78 | 0.0 | 0.0 | 0.00 | 0.00 | 0.00 | 58 | 1013.8 |
| 20260504002059 | 53 | 107 | 0.0 | 0.0 | 0.00 | 0.00 | 0.00 | 56 | 1013.8 |
| 20260504001556 | 54 | 87 | 0.0 | 0.0 | 0.00 | 0.00 | 0.00 | 59 | 1014.0 |
| 20260504001052 | 54 | 96 | 0.0 | 0.0 | 0.00 | 0.00 | 0.00 | 51 | 1013.9 |
| 20260504000549 | 54 | 103 | 0.0 | 0.0 | 0.00 | 0.00 | 0.00 | 56 | 1013.9 |
| 20260504000047 | 55 | 79 | 0.0 | 0.0 | 0.00 | 0.00 | 0.00 | 53 | 1013.9 |
| 20260503235545 | 55 | 68 | 0.0 | 0.0 | 0.00 | 0.00 | 0.00 | 51 | 1014.0 |
| 20260503235042 | 56 | 44 | 0.0 | 0.9 | 0.00 | 0.00 | 0.00 | 47 | 1014.0 |
| 20260503234539 | 56 | 61 | 0.0 | 1.7 | 0.00 | 0.00 | 0.00 | 47 | 1013.8 |
| 20260503234038 | 57 | 1 | 0.0 | 0.9 | 0.00 | 0.00 | 0.00 | 45 | 1013.9 |
| 20260503233533 | 57 | 24 | 0.0 | 1.7 | 0.00 | 0.00 | 0.00 | 43 | 1013.9 |
| 20260503233030 | 57 | 55 | 1.7 | 1.7 | 0.00 | 0.00 | 0.00 | 42 | 1014.1 |
| 20260503232527 | 57 | 323 | 1.7 | 1.7 | 0.00 | 0.00 | 0.00 | 43 | 1013.9 |
| 20260503232024 | 57 | 65 | 1.7 | 2.6 | 0.00 | 0.00 | 0.00 | 42 | 1013.9 |
| 20260503231522 | 58 | 122 | 0.9 | 1.7 | 0.00 | 0.00 | 0.00 | 43 | 1014.0 |
| 20260503231018 | 58 | 278 | 0.9 | 1.7 | 0.00 | 0.00 | 0.00 | 42 | 1013.9 |
| 20260503230515 | 58 | 94 | 0.0 | 6.1 | 0.00 | 0.00 | 0.00 | 42 | 1013.8 |
| 20260503230013 | 58 | 69 | 0.0 | 0.9 | 0.00 | 0.00 | 0.00 | 42 | 1013.9 |
| 20260503225509 | 58 | 101 | 3.5 | 5.2 | 0.00 | 0.00 | 0.00 | 40 | 1013.9 |
| 20260503225004 | 58 | 247 | 1.7 | 2.6 | 0.00 | 0.00 | 0.00 | 40 | 1013.8 |
| 20260503224502 | 58 | 19 | 0.0 | 3.5 | 0.00 | 0.00 | 0.00 | 40 | 1013.9 |
| 20260503224000 | 58 | 115 | 1.7 | 2.6 | 0.00 | 0.00 | 0.00 | 39 | 1014.0 |
| 20260503223457 | 59 | 353 | 1.7 | 5.2 | 0.00 | 0.00 | 0.00 | 39 | 1014.1 |
| 20260503222952 | 59 | 110 | 6.1 | 11.3 | 0.00 | 0.00 | 0.00 | 39 | 1014.0 |
| 20260503222451 | 59 | 342 | 0.9 | 2.6 | 0.00 | 0.00 | 0.00 | 39 | 1014.1 |
| 20260503221949 | 59 | 122 | 0.9 | 2.6 | 0.00 | 0.00 | 0.00 | 41 | 1013.9 |
| 20260503221447 | 59 | 347 | 3.5 | 3.5 | 0.00 | 0.00 | 0.00 | 39 | 1014.0 |
| 20260503220944 | 60 | 98 | 1.7 | 2.6 | 0.00 | 0.00 | 0.00 | 39 | 1014.0 |
| 20260503220440 | 60 | 66 | 0.0 | 2.6 | 0.00 | 0.00 | 0.00 | 38 | 1014.0 |
| 20260503215937 | 60 | 139 | 0.0 | 2.6 | 0.00 | 0.00 | 0.00 | 38 | 1014.2 |
| 20260503215434 | 59 | 104 | 7.8 | 13.0 | 0.00 | 0.00 | 0.00 | 38 | 1014.1 |
| 20260503214932 | 60 | 316 | 0.9 | 5.2 | 0.00 | 0.00 | 0.00 | 38 | 1013.9 |
| 20260503214429 | 60 | 88 | 1.7 | 2.6 | 0.00 | 0.00 | 0.00 | 38 | 1014.0 |
| 20260503213926 | 60 | 312 | 2.6 | 5.2 | 0.00 | 0.00 | 0.00 | 38 | 1013.9 |
| 20260503213425 | 61 | 53 | 0.9 | 3.5 | 0.00 | 0.00 | 0.00 | 36 | 1013.6 |
| 20260503212920 | 61 | 198 | 5.2 | 8.7 | 0.00 | 0.00 | 0.00 | 38 | 1013.7 |
| 20260503212418 | 61 | 344 | 1.7 | 3.5 | 0.00 | 0.00 | 0.00 | 38 | 1013.7 |
| 20260503211916 | 62 | 36 | 0.9 | 6.1 | 0.00 | 0.00 | 0.00 | 36 | 1013.7 |
| 20260503211412 | 61 | 133 | 0.9 | 6.1 | 0.00 | 0.00 | 0.00 | 36 | 1013.8 |
| 20260503210907 | 61 | 292 | 0.9 | 2.6 | 0.00 | 0.00 | 0.00 | 36 | 1014.0 |
| 20260503210405 | 59 | 143 | 0.0 | 3.5 | 0.00 | 0.00 | 0.00 | 37 | 1013.9 |
| 20260503205859 | 60 | 148 | 1.7 | 3.5 | 0.00 | 0.00 | 0.00 | 36 | 1013.9 |
| 20260503205356 | 61 | 111 | 0.0 | 1.7 | 0.00 | 0.00 | 0.00 | 37 | 1014.0 |
| 20260503204853 | 60 | 88 | 1.7 | 6.1 | 0.00 | 0.00 | 0.00 | 36 | 1014.1 |
| 20260503204350 | 60 | 151 | 0.0 | 1.7 | 0.00 | 0.00 | 0.00 | 38 | 1014.1 |
| 20260503203847 | 60 | 352 | 1.7 | 7.8 | 0.00 | 0.00 | 0.00 | 38 | 1014.2 |
| 20260503203344 | 59 | 265 | 1.7 | 6.1 | 0.00 | 0.00 | 0.00 | 38 | 1014.3 |
| 20260503202841 | 59 | 309 | 1.7 | 5.2 | 0.00 | 0.00 | 0.00 | 38 | 1014.2 |
| 20260503202339 | 59 | 15 | 1.7 | 3.5 | 0.00 | 0.00 | 0.00 | 38 | 1014.2 |
| 20260503201838 | 59 | 70 | 1.7 | 5.2 | 0.00 | 0.00 | 0.00 | 39 | 1014.4 |
| 20260503201334 | 60 | 1 | 3.5 | 6.1 | 0.00 | 0.00 | 0.00 | 37 | 1014.4 |
| 20260503200832 | 61 | 12 | 0.9 | 7.8 | 0.00 | 0.00 | 0.00 | 39 | 1014.4 |
| 20260503200327 | 60 | 296 | 4.3 | 7.0 | 0.00 | 0.00 | 0.00 | 38 | 1014.5 |
| 20260503195825 | 59 | 127 | 0.9 | 3.5 | 0.00 | 0.00 | 0.00 | 38 | 1014.5 |
| 20260503195321 | 58 | 118 | 1.7 | 6.1 | 0.00 | 0.00 | 0.00 | 39 | 1014.8 |
| 20260503194819 | 58 | 4 | 1.7 | 5.2 | 0.00 | 0.00 | 0.00 | 39 | 1014.7 |
| 20260503194314 | 58 | 61 | 1.7 | 2.6 | 0.00 | 0.00 | 0.00 | 38 | 1014.8 |
| 20260503193811 | 59 | 336 | 3.5 | 6.1 | 0.00 | 0.00 | 0.00 | 38 | 1015.0 |
| 20260503193307 | 59 | 16 | 1.7 | 8.7 | 0.00 | 0.00 | 0.00 | 39 | 1015.2 |
| 20260503192803 | 59 | 9 | 2.6 | 3.5 | 0.00 | 0.00 | 0.00 | 36 | 1015.1 |
| 20260503192258 | 59 | 346 | 3.5 | 7.0 | 0.00 | 0.00 | 0.00 | 34 | 1015.0 |
| 20260503191755 | 60 | 0 | 1.7 | 8.7 | 0.00 | 0.00 | 0.00 | 34 | 1015.3 |
| 20260503191252 | 60 | 315 | 3.5 | 3.5 | 0.00 | 0.00 | 0.00 | 36 | 1015.4 |
| 20260503190749 | 59 | 154 | 3.5 | 6.1 | 0.00 | 0.00 | 0.00 | 39 | 1015.2 |
| 20260503190246 | 60 | 31 | 0.9 | 2.6 | 0.00 | 0.00 | 0.00 | 37 | 1015.4 |
| 20260503185743 | 59 | 342 | 7.8 | 13.9 | 0.00 | 0.00 | 0.00 | 40 | 1015.5 |
| 20260503185238 | 60 | 295 | 3.5 | 7.0 | 0.00 | 0.00 | 0.00 | 38 | 1015.4 |
| 20260503184733 | 58 | 323 | 3.5 | 7.0 | 0.00 | 0.00 | 0.00 | 41 | 1015.8 |
| 20260503184230 | 57 | 336 | 2.6 | 7.0 | 0.00 | 0.00 | 0.00 | 41 | 1015.8 |
| 20260503183726 | 58 | 274 | 2.6 | 7.8 | 0.00 | 0.00 | 0.00 | 40 | 1015.8 |
| 20260503183223 | 59 | 322 | 1.7 | 3.5 | 0.00 | 0.00 | 0.00 | 43 | 1015.8 |
| 20260503182721 | 59 | 356 | 1.7 | 1.7 | 0.00 | 0.00 | 0.00 | 39 | 1015.8 |
| 20260503182220 | 58 | 271 | 1.7 | 8.7 | 0.00 | 0.00 | 0.00 | 41 | 1015.9 |
| 20260503181716 | 59 | 286 | 2.6 | 6.1 | 0.00 | 0.00 | 0.00 | 40 | 1015.9 |
| 20260503181213 | 59 | 315 | 2.6 | 3.5 | 0.00 | 0.00 | 0.00 | 40 | 1016.0 |
| 20260503180709 | 57 | 321 | 3.5 | 6.1 | 0.00 | 0.00 | 0.00 | 39 | 1016.1 |
| 20260503180208 | 58 | 78 | 3.5 | 5.2 | 0.00 | 0.00 | 0.00 | 40 | 1016.2 |
| 20260503175704 | 57 | 208 | 2.6 | 3.5 | 0.00 | 0.00 | 0.00 | 40 | 1016.4 |
| 20260503175202 | 57 | 296 | 1.7 | 5.2 | 0.00 | 0.00 | 0.00 | 42 | 1016.5 |
| 20260503174658 | 58 | 320 | 3.5 | 5.2 | 0.00 | 0.00 | 0.00 | 42 | 1016.4 |
| 20260503174156 | 57 | 289 | 3.5 | 5.2 | 0.00 | 0.00 | 0.00 | 39 | 1016.4 |
| 20260503173651 | 57 | 127 | 2.6 | 7.8 | 0.00 | 0.00 | 0.00 | 40 | 1016.5 |
| 20260503173147 | 57 | 340 | 3.5 | 6.1 | 0.00 | 0.00 | 0.00 | 40 | 1016.5 |
| 20260503172644 | 56 | 329 | 1.7 | 3.5 | 0.00 | 0.00 | 0.00 | 42 | 1016.4 |
| 20260503172141 | 56 | 27 | 2.6 | 3.5 | 0.00 | 0.00 | 0.00 | 44 | 1016.6 |
| 20260503171637 | 55 | 28 | 2.6 | 2.6 | 0.00 | 0.00 | 0.00 | 43 | 1016.7 |
| 20260503171135 | 54 | 321 | 3.5 | 7.8 | 0.00 | 0.00 | 0.00 | 44 | 1016.7 |
| 20260503170632 | 55 | 156 | 1.7 | 6.1 | 0.00 | 0.00 | 0.00 | 44 | 1016.7 |
| 20260503170129 | 56 | 293 | 1.7 | 6.1 | 0.00 | 0.00 | 0.00 | 44 | 1016.9 |
| 20260503150520 | 52 | 277 | 4.3 | 6.1 | 0.00 | 0.00 | 0.00 | 45 | 1017.7 |
| 20260503131413 | 47 | 62 | 0.0 | 2.6 | 0.00 | 0.00 | 0.00 | 68 | 1018.4 |
| 20260503130910 | 47 | 124 | 0.0 | 1.7 | 0.00 | 0.00 | 0.00 | 67 | 1018.4 |
| 20260503130408 | 46 | 49 | 0.9 | 1.7 | 0.00 | 0.00 | 0.00 | 70 | 1018.3 |
| 20260503110811 | 30 | 99 | 0.0 | 0.0 | 0.00 | 0.00 | 0.00 | 99 | 1017.9 |
| 20260503110308 | 30 | 97 | 0.0 | 0.9 | 0.00 | 0.00 | 0.00 | 99 | 1017.8 |
| 20260503100234 | 30 | 71 | 0.0 | 0.0 | 0.00 | 0.00 | 0.00 | 99 | 1017.2 |
| 20260503090200 | 30 | 102 | 0.0 | 0.0 | 0.00 | 0.00 | 0.00 | 99 | 1017.1 |
| 20260503081636 | 30 | 90 | 0.0 | 0.0 | 0.00 | 0.00 | 0.00 | 99 | 1017.1 |
| 20260503081132 | 30 | 90 | 0.0 | 0.0 | 0.00 | 0.00 | 0.00 | 99 | 1017.2 |
| 20260503080628 | 30 | 90 | 0.0 | 0.0 | 0.00 | 0.00 | 0.00 | 99 | 1017.4 |
| 20260503080125 | 31 | 90 | 0.0 | 0.0 | 0.00 | 0.00 | 0.00 | 99 | 1017.2 |
| 20260503072602 | 32 | 90 | 0.0 | 0.0 | 0.00 | 0.00 | 0.00 | 99 | 1016.9 |
| 20260503072059 | 32 | 90 | 0.0 | 0.0 | 0.00 | 0.00 | 0.00 | 99 | 1016.8 |
| 20260503071556 | 32 | 90 | 0.0 | 0.0 | 0.00 | 0.00 | 0.00 | 99 | 1017.0 |
| 20260503071053 | 32 | 84 | 0.0 | 0.0 | 0.00 | 0.00 | 0.00 | 99 | 1017.0 |
| 20260503070549 | 33 | 83 | 0.0 | 0.0 | 0.00 | 0.00 | 0.00 | 99 | 1017.1 |
| 20260503055003 | 34 | 73 | 0.0 | 0.0 | 0.00 | 0.00 | 0.00 | 99 | 1017.2 |
| 20260503054459 | 35 | 86 | 0.0 | 0.0 | 0.00 | 0.00 | 0.00 | 99 | 1017.3 |
| 20260503053956 | 34 | 61 | 0.0 | 0.0 | 0.00 | 0.00 | 0.00 | 98 | 1017.1 |
| 20260503053454 | 34 | 61 | 0.0 | 0.0 | 0.00 | 0.00 | 0.00 | 98 | 1017.1 |
| 20260503052951 | 34 | 72 | 0.0 | 0.0 | 0.00 | 0.00 | 0.00 | 98 | 1017.1 |
| 20260503052448 | 34 | 55 | 0.0 | 0.0 | 0.00 | 0.00 | 0.00 | 98 | 1017.3 |
| 20260503051944 | 34 | 51 | 0.0 | 0.0 | 0.00 | 0.00 | 0.00 | 99 | 1017.2 |
| 20260503051440 | 34 | 57 | 0.0 | 0.0 | 0.00 | 0.00 | 0.00 | 99 | 1017.3 |
| 20260503050937 | 34 | 73 | 0.0 | 0.0 | 0.00 | 0.00 | 0.00 | 98 | 1017.3 |
| 20260503050433 | 34 | 73 | 0.0 | 0.0 | 0.00 | 0.00 | 0.00 | 98 | 1017.3 |
| 20260503045931 | 34 | 83 | 0.0 | 0.0 | 0.00 | 0.00 | 0.00 | 98 | 1017.3 |
| 20260503045428 | 35 | 83 | 0.0 | 0.0 | 0.00 | 0.00 | 0.00 | 98 | 1017.4 |
| 20260503044925 | 35 | 83 | 0.0 | 0.0 | 0.00 | 0.00 | 0.00 | 98 | 1017.3 |
| 20260503044422 | 35 | 90 | 0.0 | 0.0 | 0.00 | 0.00 | 0.00 | 98 | 1017.3 |
| 20260503043920 | 35 | 87 | 0.0 | 0.0 | 0.00 | 0.00 | 0.00 | 98 | 1017.4 |
| 20260503043416 | 35 | 102 | 0.0 | 0.0 | 0.00 | 0.00 | 0.00 | 98 | 1017.5 |
| 20260503042912 | 35 | 104 | 0.0 | 0.0 | 0.00 | 0.00 | 0.00 | 98 | 1017.5 |
| 20260503042409 | 34 | 74 | 0.0 | 0.0 | 0.00 | 0.00 | 0.00 | 98 | 1017.5 |
| 20260503041905 | 34 | 33 | 0.0 | 0.0 | 0.00 | 0.00 | 0.00 | 98 | 1017.5 |
| 20260503041402 | 34 | 80 | 0.0 | 0.0 | 0.00 | 0.00 | 0.00 | 98 | 1017.4 |
| 20260503040900 | 34 | 79 | 0.0 | 0.0 | 0.00 | 0.00 | 0.00 | 98 | 1017.5 |
| 20260503040357 | 34 | 48 | 0.0 | 0.0 | 0.00 | 0.09 | 0.09 | 98 | 1017.4 |
| 20260503035854 | 34 | 64 | 0.0 | 0.0 | 0.00 | 0.09 | 0.09 | 98 | 1017.6 |
| 20260503035351 | 34 | 54 | 0.0 | 0.0 | 0.00 | 0.09 | 0.09 | 98 | 1017.5 |
| 20260503034848 | 34 | 63 | 0.0 | 0.0 | 0.00 | 0.09 | 0.09 | 98 | 1017.4 |
| 20260503034346 | 34 | 63 | 0.0 | 0.0 | 0.00 | 0.09 | 0.09 | 98 | 1017.5 |
| 20260503033843 | 33 | 63 | 0.0 | 0.0 | 0.00 | 0.09 | 0.09 | 98 | 1017.4 |
| 20260503033340 | 34 | 63 | 0.0 | 0.0 | 0.00 | 0.09 | 0.09 | 97 | 1017.5 |
| 20260503032838 | 34 | 63 | 0.0 | 0.0 | 0.00 | 0.09 | 0.09 | 97 | 1017.4 |
| 20260503032337 | 34 | 63 | 0.0 | 0.0 | 0.00 | 0.09 | 0.09 | 97 | 1017.5 |
| 20260503031834 | 34 | 66 | 0.0 | 0.0 | 0.00 | 0.09 | 0.09 | 96 | 1017.5 |
| 20260503031331 | 34 | 67 | 0.0 | 0.0 | 0.00 | 0.09 | 0.09 | 95 | 1017.4 |
| 20260503030828 | 35 | 67 | 0.0 | 0.0 | 0.00 | 0.09 | 0.09 | 95 | 1017.4 |